Αναφορές Αεροδρομίων

 

LGTS - Thessaloniki/Mik, Greece
Distance from station: ΝΔ 15km
Ενημερώθηκε: 22/01/2019 16:50
Σχεδόν νεφελώδης
Σχεδόν νεφελώδης
 Ανεμος από ΝΑ
Ανεμος: ΝΑ 13 km/h
Θερμοκρασία: 12°C
Σημείο Δρόσου: 7°C
Υγρασία: 72%
Βαρόμετρο: 1009 hPa
Clouds: Σχεδόν νεφελώδης
Visibility: 10 km
Cloud details: Λίγα Σύννεφα 305 m
Σχεδόν νεφελώδης 762 m
2019/01/22 14:50 LGTS 221450Z 13007KT 9999 FEW010 BKN025 12/07 Q1009 NOSIG
LGKZ - Kozani (civ/Army, Greece
Distance from station: ΔΝΔ 113km
Ενημερώθηκε: 22/01/2019 13:50
NOT Current
Συννεφιά
Συννεφιά
 Ανεμος από calm
Ανεμος: Απνοια
Θερμοκρασία: 6°C
Σημείο Δρόσου: 4°C
Υγρασία: 87%
Βαρόμετρο: 1011 hPa
Clouds: Συννεφιά
Visibility: 8 km
Cloud details: Μερικώς νεφελώδης 122 m
Σχεδόν νεφελώδης 610 m
Συννεφιά 2134 m
2019/01/22 11:50 LGKZ 221150Z 00000KT 8000 SCT004 BKN020 OVC070 06/04 Q1011
 
LGKV - Kavala/Chrisoupo, Greece
Distance from station: ΑΒΑ 132km
Ενημερώθηκε: 22/01/2019 16:50
Ασθενής βροχή, Συννεφιά
Ασθενής βροχή, Συννεφιά
 Ανεμος από ΒΒΑ
Ανεμος: ΒΒΑ 15 km/h
Θερμοκρασία: 7°C
Wind Chill: 4°C
Σημείο Δρόσου: 5°C
Υγρασία: 87%
Βαρόμετρο: 1013 hPa
Περίληψη: Ασθενής βροχή
Clouds: Συννεφιά
Visibility: 10 km
Cloud details: Λίγα Σύννεφα 244 m
Συννεφιά 549 m
2019/01/22 14:50 LGKV 221450Z 03008KT 9999 -RA FEW008 OVC018 07/05 Q1013
LGBL - Nea Anchialos, Greece
Distance from station: Ν 156km
Ενημερώθηκε: 22/01/2019 16:50
Σχεδόν νεφελώδης
Σχεδόν νεφελώδης
 Ανεμος από Α
Ανεμος: Α 22 km/h
Θερμοκρασία: 14°C
Σημείο Δρόσου: 9°C
Υγρασία: 72%
Βαρόμετρο: 1009 hPa
Clouds: Σχεδόν νεφελώδης
Visibility: 10 km
Cloud details: Μερικώς νεφελώδης 914 m
Σχεδόν νεφελώδης 2438 m
2019/01/22 14:50 LGBL 221450Z 10012KT 9999 SCT030 BKN080 14/09 Q1009
 
LGSK - Skiathos Island, Greece
Distance from station: ΝΝΑ 161km
Ενημερώθηκε: 22/01/2019 13:50
NOT Current
Λίγα Σύννεφα
Λίγα Σύννεφα
 Ανεμος από calm
Ανεμος: Απνοια
Θερμοκρασία: 15°C
Σημείο Δρόσου: 10°C
Υγρασία: 72%
Βαρόμετρο: 1013 hPa
Clouds: Λίγα Σύννεφα
Visibility: 10 km
Cloud details: Λίγα Σύννεφα 914 m
2019/01/22 11:50 LGSK 221150Z 00000KT 9999 FEW030 15/10 Q1013
LWSK - Skopje/Petrovac, Macedonia
Distance from station: ΒΔ 195km
Ενημερώθηκε: 22/01/2019 17:00
Συννεφιά
Συννεφιά
 Ανεμος από ΝΝΑ
Ανεμος: ΝΝΑ 15 km/h
Θερμοκρασία: 7°C
Wind Chill: 4°C
Σημείο Δρόσου: 4°C
Υγρασία: 81%
Βαρόμετρο: 1008 hPa
Clouds: Συννεφιά
Visibility: 10 km
Cloud details: Μερικώς νεφελώδης 792 m
Συννεφιά 1524 m
2019/01/22 15:00 LWSK 221500Z 15008KT 130V210 9999 SCT026 OVC050 07/04 Q1008 NOSIG
 
LGLM - Limnos Island Ar, Greece
Distance from station: ΑΝΑ 196km
Ενημερώθηκε: 22/01/2019 16:50
Σχεδόν νεφελώδης
Σχεδόν νεφελώδης
 Ανεμος από Α
Ανεμος: Α 17 km/h
Θερμοκρασία: 11°C
Σημείο Δρόσου: 9°C
Υγρασία: 88%
Βαρόμετρο: 1012 hPa
Clouds: Σχεδόν νεφελώδης
Visibility: 10 km
Cloud details: Λίγα Σύννεφα 549 m
Σχεδόν νεφελώδης 762 m
2019/01/22 14:50 LGLM 221450Z 10009KT 9999 FEW018 BKN025 11/09 Q1012
LWOH - Ohrid, Macedonia
Distance from station: ΔΒΔ 202km
Ενημερώθηκε: 22/01/2019 17:00
Βροχή, Συννεφιά
Βροχή, Συννεφιά
 Ανεμος από ΝΝΑ
Ανεμος: ΝΝΑ 11 km/h
Θερμοκρασία: 4°C
Wind Chill: 1°C
Σημείο Δρόσου: 2°C
Υγρασία: 87%
Βαρόμετρο: 1006 hPa
Περίληψη: Βροχή
Clouds: Συννεφιά
Visibility: 10 km
Cloud details: Μερικώς νεφελώδης 396 m
Συννεφιά 1006 m
2019/01/22 15:00 LWOH 221500Z 16006KT 110V220 9999 RA SCT013 OVC033 04/02 Q1006
 
LGSY - Skiros, Greece
Distance from station: ΝΑ 217km
Ενημερώθηκε: 22/01/2019 16:50
Λίγα Σύννεφα
Λίγα Σύννεφα
 Ανεμος από ΝΝΑ
Ανεμος: ΝΝΑ 26 km/h
Θερμοκρασία: 14°C
Σημείο Δρόσου: 9°C
Υγρασία: 72%
Βαρόμετρο: 1011 hPa
Clouds: Λίγα Σύννεφα
Visibility: 10 km
Cloud details: Λίγα Σύννεφα 610 m
2019/01/22 14:50 LGSY 221450Z 15014KT 9999 FEW020 14/09 Q1011 RMK SCT080 BLU
LGIO - Ioannina, Greece
Distance from station: ΔΝΔ 218km
Ενημερώθηκε: 22/01/2019 13:50
NOT Current
Light thunderstorm, Βροχή, Συννεφιά
Light thunderstorm, Βροχή, Συννεφιά
 Ανεμος από varies
Ανεμος: varies 0 km/h
Θερμοκρασία: 7°C
Σημείο Δρόσου: 6°C
Υγρασία: 93%
Βαρόμετρο: 1008 hPa
Περίληψη: Light thunderstorm, Βροχή
Clouds: Συννεφιά
Visibility: 9 km
Cloud details: Λίγα Σύννεφα 610 m
Σχεδόν νεφελώδης 762 m
Συννεφιά 1829 m
2019/01/22 11:50 LGIO 221150Z /////KT 9000 -TSRA FEW020CB BKN025 OVC060 07/06 Q1008
 
LBPD - Plovdiv, Bulgaria
Distance from station: ΒΑ 222km
Ενημερώθηκε: 22/01/2019 17:00
Mist, Συννεφιά
Mist, Συννεφιά
 Ανεμος από Δ
Ανεμος: Δ 6 km/h
Θερμοκρασία: 2°C
Σημείο Δρόσου: 2°C
Υγρασία: 100%
Βαρόμετρο: 1014 hPa
Περίληψη: Mist
Clouds: Συννεφιά
Visibility: 2 km
Cloud details: Συννεφιά 152 m
2019/01/22 15:00 LBPD 221500Z AUTO 27003KT 2200 BR OVC005 02/02 Q1014 R99/29//95 NOSIG
LBSF - Sofia (observato, Bulgaria
Distance from station: Β 229km
Ενημερώθηκε: 22/01/2019 17:00
Συννεφιά
Συννεφιά
 Ανεμος από Α
Ανεμος: Α 31 km/h
Θερμοκρασία: 1°C
Wind Chill: -5°C
Σημείο Δρόσου: -1°C
Υγρασία: 87%
Βαρόμετρο: 1010 hPa
Clouds: Συννεφιά
Visibility: 8 km
Cloud details: Μερικώς νεφελώδης 244 m
Συννεφιά 427 m
2019/01/22 15:00 LBSF 221500Z 10017KT 8000 SCT008 OVC014 01/M01 Q1010 NOSIG
 
LGAL - Alexandroupolis, Greece
Distance from station: Α 242km
Ενημερώθηκε: 22/01/2019 16:50
Λίγα Σύννεφα
Λίγα Σύννεφα
 Ανεμος από ΒΑ
Ανεμος: ΒΑ 13 km/h
Θερμοκρασία: 8°C
Wind Chill: 6°C
Σημείο Δρόσου: 5°C
Υγρασία: 82%
Βαρόμετρο: 1014 hPa
Clouds: Λίγα Σύννεφα
Visibility: 10 km
Cloud details: Λίγα Σύννεφα 610 m
2019/01/22 14:50 LGAL 221450Z 04007KT 9999 FEW020 08/05 Q1014
LGPZ - Preveza/Aktion, Greece
Distance from station: ΝΔ 274km
Ενημερώθηκε: 22/01/2019 16:50
Ασθενής βροχή, Συννεφιά
Ασθενής βροχή, Συννεφιά
 Ανεμος από Α
Ανεμος: Α 30 km/h
Θερμοκρασία: 7°C
Wind Chill: 3°C
Σημείο Δρόσου: 7°C
Υγρασία: 100%
Βαρόμετρο: 1009 hPa
Περίληψη: Ασθενής βροχή
Clouds: Συννεφιά
Visibility: 7 km
Cloud details: Λίγα Σύννεφα 305 m
Λίγα Σύννεφα 549 m
Σχεδόν νεφελώδης 762 m
Συννεφιά 2134 m
2019/01/22 14:50 LGPZ 221450Z 09016KT 7000 -RA FEW010 FEW018CB BKN025 OVC070 07/07 Q1009 RETS
 
BKPR - Prishtina, Yugoslavia
Distance from station: ΒΔ 280km
Ενημερώθηκε: 22/01/2019 17:00
Συννεφιά
Συννεφιά
 Ανεμος από varies
Ανεμος: varies 2 km/h
Θερμοκρασία: 3°C
Σημείο Δρόσου: 0°C
Υγρασία: 81%
Βαρόμετρο: 1005 hPa
Clouds: Συννεφιά
Visibility: 8 km
Cloud details: Λίγα Σύννεφα 518 m
Συννεφιά 762 m
2019/01/22 15:00 BKPR 221500Z VRB01KT 8000 FEW017 OVC025 03/00 Q1005 NOSIG RMK 17010095
LGEL - Elefsis (hel-Afb, Greece
Distance from station: Ν 284km
Ενημερώθηκε: 22/01/2019 16:50
Σχεδόν νεφελώδης
Σχεδόν νεφελώδης
 Ανεμος από ΝΝΑ
Ανεμος: ΝΝΑ 19 km/h
Θερμοκρασία: 14°C
Σημείο Δρόσου: 9°C
Υγρασία: 72%
Βαρόμετρο: 1010 hPa
Clouds: Σχεδόν νεφελώδης
Visibility: 10 km
Cloud details: Λίγα Σύννεφα 457 m
Μερικώς νεφελώδης 762 m
Σχεδόν νεφελώδης 2134 m
2019/01/22 14:50 LGEL 221450Z 15010KT 9999 FEW015TCU SCT025 BKN070 14/09 Q1010
 
LATI - Tirana, Albania
Distance from station: ΔΒΔ 291km
Ενημερώθηκε: 22/01/2019 17:20
Συννεφιά
Συννεφιά
 Ανεμος από Ν
Ανεμος: Ν 13 km/h
Θερμοκρασία: 10°C
Wind Chill: 8°C
Σημείο Δρόσου: 8°C
Υγρασία: 88%
Βαρόμετρο: 1004 hPa
Clouds: Συννεφιά
Visibility: 10 km
Cloud details: Μερικώς νεφελώδης 1128 m
Σχεδόν νεφελώδης 1707 m
Συννεφιά 2134 m
2019/01/22 15:20 LATI 221520Z 18007KT 9999 SCT037 BKN056 OVC070 10/08 Q1004 NOSIG
LGKR - Ioannis Kapodist, Greece
Distance from station: ΔΝΔ 292km
Ενημερώθηκε: 22/01/2019 16:50
Συννεφιά
Συννεφιά
 Ανεμος από ΝΝΑ
Ανεμος: ΝΝΑ 22 km/h
Θερμοκρασία: 12°C
Σημείο Δρόσου: 10°C
Υγρασία: 88%
Βαρόμετρο: 1006 hPa
Clouds: Συννεφιά
Visibility: 10 km
Cloud details: Μερικώς νεφελώδης 244 m
Μερικώς νεφελώδης 488 m
Σχεδόν νεφελώδης 610 m
Συννεφιά 2134 m
2019/01/22 14:50 LGKR 221450Z 15012KT 9999 SCT008 SCT016TCU BKN020 OVC070 12/10 Q1006 TEMPO 5000 TSRA FEW016CB